sensor_id;sensor_type;location;lat;lon;timestamp;pressure;altitude;pressure_sealevel;temperature;humidity
29045;BME280;16133;49.486;12.176;2022-12-08T00:01:29;96863.28;;;1.52;100.00
29045;BME280;16133;49.486;12.176;2022-12-08T00:03:57;96867.56;;;1.53;100.00
29045;BME280;16133;49.486;12.176;2022-12-08T00:11:52;96869.19;;;1.54;100.00
29045;BME280;16133;49.486;12.176;2022-12-08T00:14:18;96862.34;;;1.53;100.00
29045;BME280;16133;49.486;12.176;2022-12-08T00:16:43;96863.00;;;1.55;100.00
29045;BME280;16133;49.486;12.176;2022-12-08T00:19:09;96867.28;;;1.56;100.00
29045;BME280;16133;49.486;12.176;2022-12-08T00:21:34;96863.84;;;1.55;100.00
29045;BME280;16133;49.486;12.176;2022-12-08T00:23:59;96868.78;;;1.58;100.00
29045;BME280;16133;49.486;12.176;2022-12-08T00:26:25;96869.63;;;1.59;100.00
29045;BME280;16133;49.486;12.176;2022-12-08T00:28:50;96856.13;;;1.63;100.00
29045;BME280;16133;49.486;12.176;2022-12-08T00:31:16;96862.47;;;1.61;100.00
29045;BME280;16133;49.486;12.176;2022-12-08T00:33:41;96866.06;;;1.60;100.00
29045;BME280;16133;49.486;12.176;2022-12-08T00:36:09;96865.22;;;1.59;100.00
29045;BME280;16133;49.486;12.176;2022-12-08T00:38:36;96856.41;;;1.60;100.00
29045;BME280;16133;49.486;12.176;2022-12-08T00:41:03;96857.25;;;1.61;100.00
29045;BME280;16133;49.486;12.176;2022-12-08T00:43:28;96858.06;;;1.61;100.00
29045;BME280;16133;49.486;12.176;2022-12-08T00:45:53;96841.53;;;1.51;100.00
29045;BME280;16133;49.486;12.176;2022-12-08T00:48:19;96856.41;;;1.60;100.00
29045;BME280;16133;49.486;12.176;2022-12-08T00:50:44;96863.28;;;1.61;100.00
29045;BME280;16133;49.486;12.176;2022-12-08T00:53:10;96860.66;;;1.61;100.00
29045;BME280;16133;49.486;12.176;2022-12-08T00:55:35;96862.47;;;1.61;100.00
29045;BME280;16133;49.486;12.176;2022-12-08T00:58:00;96867.72;;;1.61;100.00
29045;BME280;16133;49.486;12.176;2022-12-08T01:00:26;96865.34;;;1.58;100.00
29045;BME280;16133;49.486;12.176;2022-12-08T01:02:51;96867.00;;;1.59;100.00
29045;BME280;16133;49.486;12.176;2022-12-08T01:05:16;96862.59;;;1.59;100.00
29045;BME280;16133;49.486;12.176;2022-12-08T01:07:42;96859.56;;;1.54;100.00
29045;BME280;16133;49.486;12.176;2022-12-08T01:10:07;96862.06;;;1.56;100.00
29045;BME280;16133;49.486;12.176;2022-12-08T01:12:33;96858.63;;;1.55;100.00
29045;BME280;16133;49.486;12.176;2022-12-08T01:14:58;96862.19;;;1.54;100.00
29045;BME280;16133;49.486;12.176;2022-12-08T01:17:23;96857.78;;;1.55;100.00
29045;BME280;16133;49.486;12.176;2022-12-08T01:19:50;96864.66;;;1.56;100.00
29045;BME280;16133;49.486;12.176;2022-12-08T01:22:15;96867.97;;;1.58;100.00
29045;BME280;16133;49.486;12.176;2022-12-08T01:24:40;96867.84;;;1.59;100.00
29045;BME280;16133;49.486;12.176;2022-12-08T01:27:06;96867.97;;;1.58;100.00
29045;BME280;16133;49.486;12.176;2022-12-08T01:29:31;96865.34;;;1.58;100.00
29045;BME280;16133;49.486;12.176;2022-12-08T01:31:56;96863.56;;;1.58;100.00
29045;BME280;16133;49.486;12.176;2022-12-08T01:34:22;96864.38;;;1.59;100.00
29045;BME280;16133;49.486;12.176;2022-12-08T01:36:47;96860.81;;;1.60;100.00
29045;BME280;16133;49.486;12.176;2022-12-08T01:39:15;96866.88;;;1.60;100.00
29045;BME280;16133;49.486;12.176;2022-12-08T01:41:41;96853.94;;;1.59;100.00
29045;BME280;16133;49.486;12.176;2022-12-08T01:46:35;96846.78;;;1.61;100.00
29045;BME280;16133;49.486;12.176;2022-12-08T01:49:20;96852.16;;;1.59;100.00
29045;BME280;16133;49.486;12.176;2022-12-08T01:52:04;96841.97;;;1.56;100.00
29045;BME280;16133;49.486;12.176;2022-12-08T01:54:38;96833.97;;;1.58;100.00
29045;BME280;16133;49.486;12.176;2022-12-08T01:57:07;96847.59;;;1.61;100.00
29045;BME280;16133;49.486;12.176;2022-12-08T01:59:37;96832.47;;;1.55;100.00
29045;BME280;16133;49.486;12.176;2022-12-08T02:02:04;96834.13;;;1.56;100.00
29045;BME280;16133;49.486;12.176;2022-12-08T02:04:29;96832.47;;;1.55;100.00
29045;BME280;16133;49.486;12.176;2022-12-08T02:06:55;96832.47;;;1.55;100.00
29045;BME280;16133;49.486;12.176;2022-12-08T02:09:20;96834.13;;;1.56;100.00
29045;BME280;16133;49.486;12.176;2022-12-08T02:11:47;96828.06;;;1.56;100.00
29045;BME280;16133;49.486;12.176;2022-12-08T02:14:13;96828.19;;;1.54;100.00
29045;BME280;16133;49.486;12.176;2022-12-08T02:16:54;96834.41;;;1.53;100.00
29045;BME280;16133;49.486;12.176;2022-12-08T02:24:49;96823.13;;;1.53;100.00
29045;BME280;16133;49.486;12.176;2022-12-08T02:30:37;96813.63;;;1.52;100.00
29045;BME280;16133;49.486;12.176;2022-12-08T02:38:38;96806.06;;;1.49;100.00
29045;BME280;16133;49.486;12.176;2022-12-08T02:43:56;96808.53;;;1.50;100.00
29045;BME280;16133;49.486;12.176;2022-12-08T02:46:29;96800.00;;;1.48;100.00
29045;BME280;16133;49.486;12.176;2022-12-08T02:48:56;96797.38;;;1.48;100.00
29045;BME280;16133;49.486;12.176;2022-12-08T02:51:23;96797.50;;;1.47;100.00
29045;BME280;16133;49.486;12.176;2022-12-08T02:53:49;96792.44;;;1.45;100.00
29045;BME280;16133;49.486;12.176;2022-12-08T02:56:44;96791.63;;;1.44;100.00
29045;BME280;16133;49.486;12.176;2022-12-08T02:59:26;96783.06;;;1.42;100.00
29045;BME280;16133;49.486;12.176;2022-12-08T03:02:00;96781.28;;;1.43;100.00
29045;BME280;16133;49.486;12.176;2022-12-08T03:09:59;96775.78;;;1.36;100.00
29045;BME280;16133;49.486;12.176;2022-12-08T03:15:06;96779.53;;;1.34;100.00
29045;BME280;16133;49.486;12.176;2022-12-08T03:17:35;96776.34;;;1.30;100.00
29045;BME280;16133;49.486;12.176;2022-12-08T03:20:05;96770.56;;;1.27;100.00
29045;BME280;16133;49.486;12.176;2022-12-08T03:22:33;96774.97;;;1.26;100.00
29045;BME280;16133;49.486;12.176;2022-12-08T03:24:59;96771.25;;;1.29;100.00
29045;BME280;16133;49.486;12.176;2022-12-08T03:27:27;96766.72;;;1.31;100.00
29045;BME280;16133;49.486;12.176;2022-12-08T03:29:55;96770.44;;;1.28;100.00
29045;BME280;16133;49.486;12.176;2022-12-08T03:32:43;96764.91;;;1.31;100.00
29045;BME280;16133;49.486;12.176;2022-12-08T03:35:14;96765.75;;;1.32;100.00
29045;BME280;16133;49.486;12.176;2022-12-08T03:37:41;96761.47;;;1.31;100.00
29045;BME280;16133;49.486;12.176;2022-12-08T03:40:09;96765.09;;;1.30;100.00
29045;BME280;16133;49.486;12.176;2022-12-08T03:42:36;96770.00;;;1.23;100.00
29045;BME280;16133;49.486;12.176;2022-12-08T03:45:02;96765.09;;;1.30;100.00
29045;BME280;16133;49.486;12.176;2022-12-08T03:47:28;96771.81;;;1.32;100.00
29045;BME280;16133;49.486;12.176;2022-12-08T03:49:54;96770.69;;;1.35;100.00
29045;BME280;16133;49.486;12.176;2022-12-08T03:52:19;96775.78;;;1.36;100.00
29045;BME280;16133;49.486;12.176;2022-12-08T03:54:45;96773.06;;;1.38;100.00
29045;BME280;16133;49.486;12.176;2022-12-08T03:57:10;96772.34;;;1.36;100.00
29045;BME280;16133;49.486;12.176;2022-12-08T03:59:35;96770.44;;;1.38;100.00
29045;BME280;16133;49.486;12.176;2022-12-08T04:02:01;96770.28;;;1.39;100.00
29045;BME280;16133;49.486;12.176;2022-12-08T04:04:26;96774.84;;;1.37;100.00
29045;BME280;16133;49.486;12.176;2022-12-08T04:06:51;96776.06;;;1.33;100.00
29045;BME280;16133;49.486;12.176;2022-12-08T04:09:17;96773.31;;;1.35;100.00
29045;BME280;16133;49.486;12.176;2022-12-08T04:11:42;96774.53;;;1.31;100.00
29045;BME280;16133;49.486;12.176;2022-12-08T04:14:08;96774.28;;;1.15;100.00
29045;BME280;16133;49.486;12.176;2022-12-08T04:16:33;96783.78;;;1.25;100.00
29045;BME280;16133;49.486;12.176;2022-12-08T04:18:59;96785.44;;;1.26;100.00
29045;BME280;16133;49.486;12.176;2022-12-08T04:21:24;96778.84;;;1.22;100.00
29045;BME280;16133;49.486;12.176;2022-12-08T04:23:50;96776.34;;;1.30;100.00
29045;BME280;16133;49.486;12.176;2022-12-08T04:26:15;96779.09;;;1.19;100.00
29045;BME280;16133;49.486;12.176;2022-12-08T04:28:41;96786.66;;;1.22;100.00
29045;BME280;16133;49.486;12.176;2022-12-08T04:31:07;96774.84;;;1.18;100.00
29045;BME280;16133;49.486;12.176;2022-12-08T04:33:32;96774.41;;;1.13;100.00
29045;BME280;16133;49.486;12.176;2022-12-08T04:35:59;96776.91;;;1.15;100.00
29045;BME280;16133;49.486;12.176;2022-12-08T04:38:25;96770.56;;;1.17;100.00
29045;BME280;16133;49.486;12.176;2022-12-08T04:40:50;96777.03;;;1.13;100.00
29045;BME280;16133;49.486;12.176;2022-12-08T04:43:16;96779.22;;;1.08;100.00
29045;BME280;16133;49.486;12.176;2022-12-08T04:45:41;96766.16;;;1.08;100.00
29045;BME280;16133;49.486;12.176;2022-12-08T04:48:08;96765.88;;;1.11;100.00
29045;BME280;16133;49.486;12.176;2022-12-08T04:50:33;96767.16;;;1.07;100.00
29045;BME280;16133;49.486;12.176;2022-12-08T04:52:59;96768.38;;;1.03;100.00
29045;BME280;16133;49.486;12.176;2022-12-08T04:55:24;96763.41;;;1.10;100.00
29045;BME280;16133;49.486;12.176;2022-12-08T04:57:50;96766.03;;;1.10;100.00
29045;BME280;16133;49.486;12.176;2022-12-08T05:00:16;96760.94;;;1.08;100.00
29045;BME280;16133;49.486;12.176;2022-12-08T05:02:41;96758.19;;;1.00;100.00
29045;BME280;16133;49.486;12.176;2022-12-08T05:05:07;96768.09;;;1.06;100.00
29045;BME280;16133;49.486;12.176;2022-12-08T05:07:32;96770.28;;;1.01;100.00
29045;BME280;16133;49.486;12.176;2022-12-08T05:09:58;96756.25;;;0.92;100.00
29045;BME280;16133;49.486;12.176;2022-12-08T05:12:23;96765.88;;;0.82;100.00
29045;BME280;16133;49.486;12.176;2022-12-08T05:14:49;96756.66;;;0.69;100.00
29045;BME280;16133;49.486;12.176;2022-12-08T05:17:15;96756.06;;;0.56;100.00
29045;BME280;16133;49.486;12.176;2022-12-08T05:19:40;96738.69;;;0.35;100.00
29045;BME280;16133;49.486;12.176;2022-12-08T05:22:06;96750.09;;;0.34;100.00
29045;BME280;16133;49.486;12.176;2022-12-08T05:24:31;96727.78;;;0.11;100.00
29045;BME280;16133;49.486;12.176;2022-12-08T05:26:57;96743.16;;;0.14;100.00
29045;BME280;16133;49.486;12.176;2022-12-08T05:29:22;96747.25;;;0.07;100.00
29045;BME280;16133;49.486;12.176;2022-12-08T05:31:47;96742.28;;;0.04;100.00
29045;BME280;16133;49.486;12.176;2022-12-08T05:34:13;96736.66;;;-0.01;100.00
29045;BME280;16133;49.486;12.176;2022-12-08T05:36:38;96738.44;;;-0.02;100.00
29045;BME280;16133;49.486;12.176;2022-12-08T05:39:04;96728.38;;;-0.06;100.00
29045;BME280;16133;49.486;12.176;2022-12-08T05:41:29;96729.50;;;-0.09;100.00
29045;BME280;16133;49.486;12.176;2022-12-08T05:43:54;96716.44;;;-0.09;100.00
29045;BME280;16133;49.486;12.176;2022-12-08T05:46:20;96720.69;;;-0.08;100.00
29045;BME280;16133;49.486;12.176;2022-12-08T05:48:46;96720.56;;;-0.06;100.00
29045;BME280;16133;49.486;12.176;2022-12-08T05:51:19;96717.13;;;-0.07;100.00
29045;BME280;16133;49.486;12.176;2022-12-08T05:53:46;96715.34;;;-0.06;100.00
29045;BME280;16133;49.486;12.176;2022-12-08T05:56:11;96715.47;;;-0.08;100.00
29045;BME280;16133;49.486;12.176;2022-12-08T06:02:09;96718.06;;;-0.17;100.00
29045;BME280;16133;49.486;12.176;2022-12-08T06:04:35;96705.41;;;-0.22;100.00
29045;BME280;16133;49.486;12.176;2022-12-08T06:07:00;96701.84;;;-0.21;100.00
29045;BME280;16133;49.486;12.176;2022-12-08T06:09:26;96706.41;;;-0.13;100.00
29045;BME280;16133;49.486;12.176;2022-12-08T06:11:51;96704.06;;;-0.16;100.00
29045;BME280;16133;49.486;12.176;2022-12-08T06:14:17;96706.41;;;-0.13;100.00
29045;BME280;16133;49.486;12.176;2022-12-08T06:16:42;96706.03;;;-0.09;100.00
29045;BME280;16133;49.486;12.176;2022-12-08T06:19:07;96705.03;;;-0.08;100.00
29045;BME280;16133;49.486;12.176;2022-12-08T06:21:33;96704.25;;;-0.08;100.00
29045;BME280;16133;49.486;12.176;2022-12-08T06:23:58;96703.97;;;-0.05;100.00
29045;BME280;16133;49.486;12.176;2022-12-08T06:26:24;96694.06;;;-0.11;100.00
29045;BME280;16133;49.486;12.176;2022-12-08T06:28:49;96700.16;;;-0.01;100.00
29045;BME280;16133;49.486;12.176;2022-12-08T06:31:18;96706.19;;;-0.01;100.00
29045;BME280;16133;49.486;12.176;2022-12-08T06:33:44;96702.47;;;0.02;100.00
29045;BME280;16133;49.486;12.176;2022-12-08T06:36:12;96701.25;;;0.06;100.00
29045;BME280;16133;49.486;12.176;2022-12-08T06:38:38;96708.00;;;0.09;100.00
29045;BME280;16133;49.486;12.176;2022-12-08T06:41:04;96712.13;;;0.11;100.00
29045;BME280;16133;49.486;12.176;2022-12-08T06:43:30;96709.25;;;0.14;100.00
29045;BME280;16133;49.486;12.176;2022-12-08T06:45:56;96711.03;;;0.14;100.00
29045;BME280;16133;49.486;12.176;2022-12-08T06:48:21;96722.59;;;0.21;100.00
29045;BME280;16133;49.486;12.176;2022-12-08T06:50:47;96718.19;;;0.21;100.00
29045;BME280;16133;49.486;12.176;2022-12-08T06:53:13;96722.31;;;0.24;100.00
29045;BME280;16133;49.486;12.176;2022-12-08T06:55:47;96725.63;;;0.26;100.00
29045;BME280;16133;49.486;12.176;2022-12-08T06:58:13;96725.34;;;0.29;100.00
29045;BME280;16133;49.486;12.176;2022-12-08T07:00:40;96733.06;;;0.30;100.00
29045;BME280;16133;49.486;12.176;2022-12-08T07:03:06;96728.66;;;0.31;100.00
29045;BME280;16133;49.486;12.176;2022-12-08T07:05:33;96732.09;;;0.31;100.00
29045;BME280;16133;49.486;12.176;2022-12-08T07:07:58;96733.75;;;0.32;100.00
29045;BME280;16133;49.486;12.176;2022-12-08T07:10:24;96728.41;;;0.34;100.00
29045;BME280;16133;49.486;12.176;2022-12-08T07:12:49;96738.84;;;0.34;100.00
29045;BME280;16133;49.486;12.176;2022-12-08T07:15:15;96738.69;;;0.35;100.00
29045;BME280;16133;49.486;12.176;2022-12-08T07:17:40;96740.22;;;0.38;100.00
29045;BME280;16133;49.486;12.176;2022-12-08T07:20:06;96711.75;;;0.25;100.00
29045;BME280;16133;49.486;12.176;2022-12-08T07:22:31;96737.19;;;0.42;100.00
29045;BME280;16133;49.486;12.176;2022-12-08T07:24:57;96738.03;;;0.43;100.00
29045;BME280;16133;49.486;12.176;2022-12-08T07:27:22;96737.19;;;0.42;100.00
29045;BME280;16133;49.486;12.176;2022-12-08T07:29:47;96731.03;;;0.43;100.00
29045;BME280;16133;49.486;12.176;2022-12-08T07:32:13;96734.59;;;0.42;100.00
29045;BME280;16133;49.486;12.176;2022-12-08T07:34:38;96733.34;;;0.46;100.00
29045;BME280;16133;49.486;12.176;2022-12-08T07:37:03;96728.84;;;0.48;100.00
29045;BME280;16133;49.486;12.176;2022-12-08T07:39:29;96730.06;;;0.54;100.00
29045;BME280;16133;49.486;12.176;2022-12-08T07:41:54;96737.78;;;0.56;100.00
29045;BME280;16133;49.486;12.176;2022-12-08T07:44:20;96740.56;;;0.64;100.00
29045;BME280;16133;49.486;12.176;2022-12-08T07:46:45;96739.31;;;0.68;100.00
29045;BME280;16133;49.486;12.176;2022-12-08T07:49:10;96734.78;;;0.70;100.00
29045;BME280;16133;49.486;12.176;2022-12-08T07:51:36;96734.38;;;0.74;100.00
29045;BME280;16133;49.486;12.176;2022-12-08T07:54:01;96740.03;;;0.79;100.00
29045;BME280;16133;49.486;12.176;2022-12-08T07:56:27;96747.47;;;0.84;100.00
29045;BME280;16133;49.486;12.176;2022-12-08T07:58:52;96745.09;;;0.81;100.00
29045;BME280;16133;49.486;12.176;2022-12-08T08:01:24;96703.97;;;0.54;100.00
29045;BME280;16133;49.486;12.176;2022-12-08T08:03:49;96739.88;;;0.81;100.00
29045;BME280;16133;49.486;12.176;2022-12-08T08:06:15;96746.34;;;0.86;100.00
29045;BME280;16133;49.486;12.176;2022-12-08T08:08:40;96745.78;;;0.92;100.00
29045;BME280;16133;49.486;12.176;2022-12-08T08:11:06;96743.06;;;1.04;100.00
29045;BME280;16133;49.486;12.176;2022-12-08T08:13:32;96744.44;;;1.08;100.00
29045;BME280;16133;49.486;12.176;2022-12-08T08:16:04;96749.66;;;1.17;100.00
29045;BME280;16133;49.486;12.176;2022-12-08T08:18:30;96765.06;;;1.20;100.00
29045;BME280;16133;49.486;12.176;2022-12-08T08:20:56;96751.19;;;1.29;100.00
29045;BME280;16133;49.486;12.176;2022-12-08T08:23:21;96749.66;;;1.36;100.00
29045;BME280;16133;49.486;12.176;2022-12-08T08:25:47;96749.50;;;1.48;100.00
29045;BME280;16133;49.486;12.176;2022-12-08T08:28:12;96758.31;;;1.47;100.00
29045;BME280;16133;49.486;12.176;2022-12-08T08:30:37;96764.09;;;1.50;100.00
29045;BME280;16133;49.486;12.176;2022-12-08T08:33:03;96754.19;;;1.44;100.00
29045;BME280;16133;49.486;12.176;2022-12-08T08:35:28;96758.16;;;1.58;100.00
29045;BME280;16133;49.486;12.176;2022-12-08T08:37:54;96744.28;;;1.48;100.00
29045;BME280;16133;49.486;12.176;2022-12-08T08:40:20;96755.16;;;1.53;100.00
29045;BME280;16133;49.486;12.176;2022-12-08T08:42:45;96727.63;;;1.39;100.00
29045;BME280;16133;49.486;12.176;2022-12-08T08:45:10;96756.25;;;1.60;100.00
29045;BME280;16133;49.486;12.176;2022-12-08T08:47:36;96755.28;;;1.61;100.00
29045;BME280;16133;49.486;12.176;2022-12-08T08:50:02;96762.41;;;1.68;100.00
29045;BME280;16133;49.486;12.176;2022-12-08T08:52:27;96761.19;;;1.72;100.00
29045;BME280;16133;49.486;12.176;2022-12-08T08:54:53;96757.03;;;1.70;100.00
29045;BME280;16133;49.486;12.176;2022-12-08T08:57:18;96753.88;;;1.76;100.00
29045;BME280;16133;49.486;12.176;2022-12-08T08:59:43;96753.03;;;1.75;100.00
29045;BME280;16133;49.486;12.176;2022-12-08T09:02:14;96765.97;;;1.86;100.00
29045;BME280;16133;49.486;12.176;2022-12-08T09:04:40;96757.84;;;1.80;100.00
29045;BME280;16133;49.486;12.176;2022-12-08T09:07:05;96761.97;;;1.82;100.00
29045;BME280;16133;49.486;12.176;2022-12-08T09:09:30;96762.91;;;1.91;100.00
29045;BME280;16133;49.486;12.176;2022-12-08T09:11:56;96770.47;;;1.94;100.00
29045;BME280;16133;49.486;12.176;2022-12-08T09:14:21;96753.84;;;1.85;100.00
29045;BME280;16133;49.486;12.176;2022-12-08T09:16:47;96769.53;;;1.95;100.00
29045;BME280;16133;49.486;12.176;2022-12-08T09:19:13;96733.09;;;1.74;100.00
29045;BME280;16133;49.486;12.176;2022-12-08T09:21:38;96763.88;;;1.90;100.00
29045;BME280;16133;49.486;12.176;2022-12-08T09:24:04;96763.19;;;1.88;100.00
29045;BME280;16133;49.486;12.176;2022-12-08T09:26:29;96761.81;;;1.93;100.00
29045;BME280;16133;49.486;12.176;2022-12-08T09:28:55;96767.03;;;1.93;100.00
29045;BME280;16133;49.486;12.176;2022-12-08T09:31:22;96767.56;;;1.97;100.00
29045;BME280;16133;49.486;12.176;2022-12-08T09:33:49;96733.88;;;1.84;100.00
29045;BME280;16133;49.486;12.176;2022-12-08T09:36:17;96760.50;;;2.07;100.00
29045;BME280;16133;49.486;12.176;2022-12-08T09:38:42;96728.03;;;2.00;100.00
29045;BME280;16133;49.486;12.176;2022-12-08T09:41:33;96753.28;;;2.28;100.00
29045;BME280;16133;49.486;12.176;2022-12-08T09:46:46;96749.75;;;2.47;100.00
29045;BME280;16133;49.486;12.176;2022-12-08T09:49:19;96702.13;;;2.34;100.00
29045;BME280;16133;49.486;12.176;2022-12-08T09:51:45;96743.44;;;2.67;100.00
29045;BME280;16133;49.486;12.176;2022-12-08T09:54:18;96739.47;;;2.81;100.00
29045;BME280;16133;49.486;12.176;2022-12-08T09:56:44;96614.16;;;2.23;100.00
29045;BME280;16133;49.486;12.176;2022-12-08T09:59:21;96724.59;;;2.99;100.00
29045;BME280;16133;49.486;12.176;2022-12-08T10:01:47;96724.91;;;3.14;100.00
29045;BME280;16133;49.486;12.176;2022-12-08T10:04:27;96733.94;;;3.19;100.00
29045;BME280;16133;49.486;12.176;2022-12-08T10:09:40;96717.91;;;3.40;100.00
29045;BME280;16133;49.486;12.176;2022-12-08T10:12:20;96710.56;;;3.44;100.00
29045;BME280;16133;49.486;12.176;2022-12-08T10:14:54;96709.94;;;3.50;100.00
29045;BME280;16133;49.486;12.176;2022-12-08T10:17:28;96715.69;;;3.53;100.00
29045;BME280;16133;49.486;12.176;2022-12-08T10:20:25;96714.94;;;3.61;100.00
29045;BME280;16133;49.486;12.176;2022-12-08T10:23:06;96701.16;;;3.59;100.00
29045;BME280;16133;49.486;12.176;2022-12-08T10:25:40;96676.72;;;3.58;100.00
29045;BME280;16133;49.486;12.176;2022-12-08T10:28:08;96694.25;;;3.75;100.00
29045;BME280;16133;49.486;12.176;2022-12-08T10:30:34;96706.91;;;3.88;100.00
29045;BME280;16133;49.486;12.176;2022-12-08T10:32:59;96705.94;;;3.89;100.00
29045;BME280;16133;49.486;12.176;2022-12-08T10:35:41;96696.78;;;3.93;100.00
29045;BME280;16133;49.486;12.176;2022-12-08T10:38:15;96695.66;;;3.96;100.00
29045;BME280;16133;49.486;12.176;2022-12-08T10:40:42;96695.53;;;4.05;100.00
29045;BME280;16133;49.486;12.176;2022-12-08T10:43:14;96685.69;;;4.07;100.00
29045;BME280;16133;49.486;12.176;2022-12-08T10:45:41;96679.19;;;4.19;100.00
29045;BME280;16133;49.486;12.176;2022-12-08T10:48:21;96648.09;;;3.99;100.00
29045;BME280;16133;49.486;12.176;2022-12-08T10:53:22;96653.41;;;4.15;100.00
29045;BME280;16133;49.486;12.176;2022-12-08T11:00:58;96674.03;;;4.44;100.00
29045;BME280;16133;49.486;12.176;2022-12-08T11:03:30;96634.13;;;4.32;100.00
29045;BME280;16133;49.486;12.176;2022-12-08T11:06:08;96654.50;;;4.46;100.00
29045;BME280;16133;49.486;12.176;2022-12-08T11:08:45;96652.88;;;4.53;100.00
29045;BME280;16133;49.486;12.176;2022-12-08T11:11:12;96655.03;;;4.58;100.00
29045;BME280;16133;49.486;12.176;2022-12-08T11:13:40;96650.25;;;4.61;100.00
29045;BME280;16133;49.486;12.176;2022-12-08T11:16:06;96638.94;;;4.61;100.00
29045;BME280;16133;49.486;12.176;2022-12-08T11:18:40;96645.03;;;4.77;100.00
29045;BME280;16133;49.486;12.176;2022-12-08T11:21:16;96639.31;;;4.82;100.00
29045;BME280;16133;49.486;12.176;2022-12-08T11:23:46;96638.81;;;4.87;100.00
29045;BME280;16133;49.486;12.176;2022-12-08T11:26:28;96616.78;;;4.88;99.96
29045;BME280;16133;49.486;12.176;2022-12-08T11:28:55;96628.47;;;5.01;99.13
29045;BME280;16133;49.486;12.176;2022-12-08T11:31:33;96621.38;;;5.10;98.58
29045;BME280;16133;49.486;12.176;2022-12-08T11:34:00;96600.03;;;5.13;98.84
29045;BME280;16133;49.486;12.176;2022-12-08T11:36:29;96612.38;;;5.28;98.71
29045;BME280;16133;49.486;12.176;2022-12-08T11:38:59;96618.59;;;5.36;97.68
29045;BME280;16133;49.486;12.176;2022-12-08T11:41:37;96607.41;;;5.34;96.93
29045;BME280;16133;49.486;12.176;2022-12-08T11:44:34;96609.38;;;5.40;97.42
29045;BME280;16133;49.486;12.176;2022-12-08T11:47:15;96604.63;;;5.43;97.14
29045;BME280;16133;49.486;12.176;2022-12-08T11:49:43;96604.13;;;5.48;97.26
29045;BME280;16133;49.486;12.176;2022-12-08T11:52:21;96595.88;;;5.59;97.54
29045;BME280;16133;49.486;12.176;2022-12-08T11:57:47;96588.59;;;5.69;96.07
29045;BME280;16133;49.486;12.176;2022-12-08T12:00:15;96596.13;;;5.80;96.08
29045;BME280;16133;49.486;12.176;2022-12-08T12:02:44;96595.47;;;5.78;95.42
29045;BME280;16133;49.486;12.176;2022-12-08T12:20:35;96577.47;;;5.51;93.47
29045;BME280;16133;49.486;12.176;2022-12-08T12:23:12;96586.34;;;5.50;93.81
29045;BME280;16133;49.486;12.176;2022-12-08T12:25:49;96577.16;;;5.29;94.06
29045;BME280;16133;49.486;12.176;2022-12-08T12:28:17;96581.78;;;5.19;94.77
29045;BME280;16133;49.486;12.176;2022-12-08T12:30:57;96587.06;;;5.19;95.75
29045;BME280;16133;49.486;12.176;2022-12-08T12:33:24;96578.34;;;5.11;95.58
29045;BME280;16133;49.486;12.176;2022-12-08T12:35:50;96558.63;;;5.07;96.20
29045;BME280;16133;49.486;12.176;2022-12-08T12:38:24;96553.22;;;5.08;94.67
29045;BME280;16133;49.486;12.176;2022-12-08T12:41:09;96568.97;;;5.24;95.77
29045;BME280;16133;49.486;12.176;2022-12-08T12:43:37;96562.75;;;5.17;94.75
29045;BME280;16133;49.486;12.176;2022-12-08T12:48:46;96568.16;;;4.92;95.25
29045;BME280;16133;49.486;12.176;2022-12-08T12:54:23;96541.88;;;4.35;97.52
29045;BME280;16133;49.486;12.176;2022-12-08T13:02:47;96560.69;;;3.98;100.00
29045;BME280;16133;49.486;12.176;2022-12-08T13:07:56;96532.47;;;3.58;100.00
29045;BME280;16133;49.486;12.176;2022-12-08T13:10:32;96551.69;;;3.67;100.00
29045;BME280;16133;49.486;12.176;2022-12-08T13:15:49;96521.59;;;3.95;100.00
29045;BME280;16133;49.486;12.176;2022-12-08T13:18:24;96544.34;;;4.37;100.00
29045;BME280;16133;49.486;12.176;2022-12-08T13:21:18;96540.75;;;4.62;100.00
29045;BME280;16133;49.486;12.176;2022-12-08T13:23:49;96547.13;;;4.75;100.00
29045;BME280;16133;49.486;12.176;2022-12-08T13:31:43;96542.53;;;4.53;98.39
29045;BME280;16133;49.486;12.176;2022-12-08T13:34:26;96529.53;;;4.19;99.34
29045;BME280;16133;49.486;12.176;2022-12-08T13:37:14;96546.25;;;4.10;100.00
29045;BME280;16133;49.486;12.176;2022-12-08T13:39:50;96531.75;;;3.82;100.00
29045;BME280;16133;49.486;12.176;2022-12-08T13:42:18;96539.25;;;3.77;100.00
29045;BME280;16133;49.486;12.176;2022-12-08T13:45:36;96534.28;;;3.58;100.00
29045;BME280;16133;49.486;12.176;2022-12-08T13:47:48;96537.81;;;3.41;100.00
29045;BME280;16133;49.486;12.176;2022-12-08T13:50:27;96537.00;;;3.14;100.00
29045;BME280;16133;49.486;12.176;2022-12-08T13:53:02;96503.88;;;2.79;100.00
29045;BME280;16133;49.486;12.176;2022-12-08T13:55:47;96544.59;;;3.00;100.00
29045;BME280;16133;49.486;12.176;2022-12-08T13:58:28;96542.47;;;2.95;100.00
29045;BME280;16133;49.486;12.176;2022-12-08T14:03:42;96556.59;;;3.02;100.00
29045;BME280;16133;49.486;12.176;2022-12-08T14:06:58;96554.50;;;3.06;100.00
29045;BME280;16133;49.486;12.176;2022-12-08T14:08:59;96537.22;;;2.95;100.00
29045;BME280;16133;49.486;12.176;2022-12-08T14:11:29;96560.56;;;3.06;100.00
29045;BME280;16133;49.486;12.176;2022-12-08T14:14:07;96558.91;;;3.05;100.00
29045;BME280;16133;49.486;12.176;2022-12-08T14:16:38;96559.72;;;3.06;100.00
29045;BME280;16133;49.486;12.176;2022-12-08T14:19:06;96538.19;;;2.94;100.00
29045;BME280;16133;49.486;12.176;2022-12-08T14:21:38;96560.84;;;3.03;100.00
29045;BME280;16133;49.486;12.176;2022-12-08T14:24:03;96559.50;;;2.99;100.00
29045;BME280;16133;49.486;12.176;2022-12-08T14:26:32;96536.13;;;2.80;100.00
29045;BME280;16133;49.486;12.176;2022-12-08T14:28:58;96548.19;;;2.73;100.00
29045;BME280;16133;49.486;12.176;2022-12-08T14:31:24;96552.50;;;2.56;100.00